Airfield :
LOGIN :

Register | Disclaimer

   EN    FR    IT 

 










Legend :    VFR   Marginal VFR   IFR   Intensive IFR   Very Intensive IFR
Visi :
Ceiling :
>= 8 km
>= 3000ft
5 to 8 km
1000 to 3000 ft
1500m to 5 km
500 to 1000 ft
800 to 1500m
200 to 500 ft
< 800m
< 200 ft
Symbols :   Thunderstorms  Fog  Heavy snow  Heavy precipitations  Wind > 20 kt
SIGMETs :     Misc.  Thunderstorms  Icing  Turbulence  Mountain Waves  Volcanic Ashes






- Airport Elevation : 359 ft
- IATA code : DEB


LHDC - Debrecen

CURRENT METAR :
  • 170645Z AUTO 16007KT 130V190 8000 OVC038 //////TCU 18/17 Q1009 NOSIG

EXPIRED METARs :
  • 170615Z AUTO 13005KT 100V160 8000 -SHRA BKN037 18/17 Q1009 NOSIG
  • 170551Z AUTO 15005KT 120V190 5000 -SHRA BKN037 18/17 Q1009
  • 170529Z AUTO 17008KT 140V200 5000 -SHRA BKN037 BKN051 18/17 Q1009
  • 170445Z AUTO 15005KT 7000 //////CB 18/17 Q1009 BECMG BKN040
  • 170415Z AUTO 15004KT 120V190 7000 FEW049 BKN065 //////CB 18/17 Q1009 BECMG BKN040

TAF TAF LHDC
Valid from the 17 at 06:00 until the 17 at 15:00 UTC


170515Z 1706/1715 18008KT 9999 BKN030 OVC090
TEMPO 1706/1715 VRB18G28KT 5000 SHRA TSRA BKN015CB OVC060
PROB30
TEMPO 1706/1715 1500 +SHRA +TSRA
BECMG 1708/1711 25016G26KT
BECMG 1713/1715 31012G24KT



MET'MAP, your aeronautical weather chart ! - Copyright ORBIFLY December 2007 - Disclaimer

ORBIFLY MET'MAP TEAM :

Programming & Development : Alexandra Zaïnal
Concept & original design : Baudouin d'Aumeries
Assistance for programming : Marc-Olivier Méhu
Technical & hardware support : Manuel Goepfert

Contact : metmap@orbifly.com




SOURCES & CREDITS :

   NOAA